Aigaion — SYMC — position and weather

sailwx.info

Track history (hours):
 
Tides and Currents Weather Stations Pressure Air Temp Water Temp Dewpoint Dewpoint Depression Visibility Wind Speed Wind Dir Waves Ship Positions

Aigaion

Last reported at 2015-Jun-28 23:21 UTC. Time now 2015-Jul-01 06:37 UTC.
Position S 20°06' E 118°32'.

Length 289 m; draft 8.6 m.

Type: Cargo ship. MMSI: 240174000.

Date/timePositionNaut miles runAvg speedWind from/ knotsBaromVisibWave heightAir tempDewpointWater temp
2015-Jun-28 23:21S 20°06' E 118°32'0 0.0
2015-Jun-28 13:15S 20°06' E 118°32'0 0.0
2015-Jun-28 12:33S 20°06' E 118°32'0 0.0
2015-Jun-28 11:21S 20°06' E 118°32'0 0.0
2015-Jun-27 15:33S 20°06' E 118°32'0 0.1
2015-Jun-27 14:33S 20°06' E 118°32'0 0.0
2015-Jun-27 07:23S 20°06' E 118°32'211 9.2
2015-Jun-26 08:33S 16°41' E 117°38'  
2015-Jun-20 00:33N 01°15' E 104°03'5 1.7
2015-Jun-19 21:31N 01°17' E 103°59'0 0.1
2015-Jun-19 20:25N 01°17' E 103°59'0 0.0
2015-Jun-19 19:31N 01°17' E 103°59'0 0.1
2015-Jun-19 18:13N 01°17' E 103°59'0 0.2
2015-Jun-19 17:25N 01°17' E 103°58'0 0.2
2015-Jun-19 16:31N 01°17' E 103°58'0 0.0
2015-Jun-19 15:19N 01°17' E 103°58'0 0.0
2015-Jun-19 14:25N 01°17' E 103°58'0 0.0
2015-Jun-19 13:22N 01°17' E 103°58'0 0.0
2015-Jun-19 12:25N 01°17' E 103°58'0 0.1
2015-Jun-19 11:07N 01°17' E 103°58'0 0.1
2015-Jun-19 10:19N 01°17' E 103°58'0 0.0
2015-Jun-19 09:31N 01°17' E 103°58'0 0.1
2015-Jun-19 08:31N 01°17' E 103°59'0 0.0
2015-Jun-19 07:31N 01°17' E 103°59'0 0.2
2015-Jun-19 06:22N 01°17' E 103°58'1 1.3
2015-Jun-19 05:33N 01°16' E 103°59'7 7.2
2015-Jun-19 04:33N 01°17' E 104°06'  
Track history (hours):
 
Tides and Currents Weather Stations Pressure Air Temp Water Temp Dewpoint Dewpoint Depression Visibility Wind Speed Wind Dir Waves Ship Positions

Aigaion

Last reported at 2015-Jun-28 23:21 UTC. Time now 2015-Jul-01 06:37 UTC.
Position S 20°06' E 118°32'.

Length 289 m; draft 8.6 m.

Type: Cargo ship. MMSI: 240174000.

Date/timePositionNaut miles runAvg speedWind from/ knotsBaromVisibWave heightAir tempDewpointWater temp
2015-Jun-28 23:21S 20°06' E 118°32'0 0.0
2015-Jun-28 13:15S 20°06' E 118°32'0 0.0
2015-Jun-28 12:33S 20°06' E 118°32'0 0.0
2015-Jun-28 11:21S 20°06' E 118°32'0 0.0
2015-Jun-27 15:33S 20°06' E 118°32'0 0.1
2015-Jun-27 14:33S 20°06' E 118°32'0 0.0
2015-Jun-27 07:23S 20°06' E 118°32'211 9.2
2015-Jun-26 08:33S 16°41' E 117°38'  
2015-Jun-20 00:33N 01°15' E 104°03'5 1.7
2015-Jun-19 21:31N 01°17' E 103°59'0 0.1
2015-Jun-19 20:25N 01°17' E 103°59'0 0.0
2015-Jun-19 19:31N 01°17' E 103°59'0 0.1
2015-Jun-19 18:13N 01°17' E 103°59'0 0.2
2015-Jun-19 17:25N 01°17' E 103°58'0 0.2
2015-Jun-19 16:31N 01°17' E 103°58'0 0.0
2015-Jun-19 15:19N 01°17' E 103°58'0 0.0
2015-Jun-19 14:25N 01°17' E 103°58'0 0.0
2015-Jun-19 13:22N 01°17' E 103°58'0 0.0
2015-Jun-19 12:25N 01°17' E 103°58'0 0.1
2015-Jun-19 11:07N 01°17' E 103°58'0 0.1
2015-Jun-19 10:19N 01°17' E 103°58'0 0.0
2015-Jun-19 09:31N 01°17' E 103°58'0 0.1
2015-Jun-19 08:31N 01°17' E 103°59'0 0.0
2015-Jun-19 07:31N 01°17' E 103°59'0 0.2
2015-Jun-19 06:22N 01°17' E 103°58'1 1.3
2015-Jun-19 05:33N 01°16' E 103°59'7 7.2
2015-Jun-19 04:33N 01°17' E 104°06'  

Dump ship's entire track history